createdAt,value
2023-01-10T00:02:58.058Z,7.88
2023-01-10T00:06:59.604Z,7.88
2023-01-10T00:11:21.100Z,7.85
2023-01-10T00:15:22.985Z,7.82
2023-01-10T00:19:24.769Z,7.82
2023-01-10T00:23:26.288Z,7.79
2023-01-10T00:27:27.959Z,7.79
2023-01-10T00:31:29.542Z,7.76
2023-01-10T00:35:31.138Z,7.69
2023-01-10T00:39:32.708Z,7.67
2023-01-10T00:43:52.841Z,7.63
2023-01-10T00:47:54.385Z,7.63
2023-01-10T00:51:59.743Z,7.66
2023-01-10T00:56:01.281Z,7.66
2023-01-10T01:00:03.402Z,7.62
2023-01-10T01:04:05.161Z,7.57
2023-01-10T01:08:06.816Z,7.55
2023-01-10T01:12:08.392Z,7.54
2023-01-10T01:16:10.092Z,7.52
2023-01-10T01:20:11.894Z,7.54
2023-01-10T01:24:13.508Z,7.52
2023-01-10T01:28:15.030Z,7.50
2023-01-10T01:32:16.606Z,7.48
2023-01-10T01:36:18.301Z,7.45
2023-01-10T01:40:22.141Z,7.45
2023-01-10T01:44:28.334Z,7.45
2023-01-10T01:48:38.424Z,7.45
2023-01-10T01:52:40.085Z,7.47
2023-01-10T01:57:13.878Z,7.45
2023-01-10T02:01:16.378Z,7.45
2023-01-10T02:05:22.170Z,7.42
2023-01-10T02:09:40.628Z,7.42
2023-01-10T02:13:45.261Z,7.41
2023-01-10T02:17:49.887Z,7.41
2023-01-10T02:22:01.970Z,7.41
2023-01-10T02:26:20.267Z,7.42
2023-01-10T02:30:46.738Z,7.45
2023-01-10T02:35:00.202Z,7.44
2023-01-10T02:39:12.095Z,7.44
2023-01-10T02:43:18.528Z,7.39
2023-01-10T02:47:20.436Z,7.37
2023-01-10T02:51:28.346Z,7.34
2023-01-10T02:55:45.181Z,7.33
2023-01-10T03:00:01.294Z,7.34
2023-01-10T03:04:13.603Z,7.34
2023-01-10T03:08:36.844Z,7.32
2023-01-10T03:13:10.936Z,7.30
2023-01-10T03:17:14.811Z,7.24
2023-01-10T03:21:18.694Z,7.23
2023-01-10T03:25:23.031Z,7.16
2023-01-10T03:29:30.429Z,7.15
2023-01-10T03:33:33.360Z,7.12
2023-01-10T03:37:42.355Z,7.08
2023-01-10T03:42:07.740Z,7.07
2023-01-10T03:46:18.048Z,7.05
2023-01-10T03:50:25.265Z,7.04
2023-01-10T03:54:26.850Z,7.01
2023-01-10T03:58:29.468Z,7.00
2023-01-10T04:02:32.366Z,7.00
2023-01-10T04:06:34.017Z,7.04
2023-01-10T04:10:35.586Z,7.09
2023-01-10T04:14:37.236Z,7.08
2023-01-10T04:18:38.728Z,7.08
2023-01-10T04:22:40.300Z,7.12
2023-01-10T04:26:42.031Z,7.11
2023-01-10T04:30:43.619Z,7.09
2023-01-10T04:34:45.249Z,7.09
2023-01-10T04:38:46.786Z,7.07
2023-01-10T04:42:48.399Z,7.08
2023-01-10T04:46:49.959Z,7.07
2023-01-10T04:50:52.157Z,7.00
2023-01-10T04:54:53.679Z,6.99
2023-01-10T04:58:56.248Z,6.91
2023-01-10T05:02:58.338Z,6.89
2023-01-10T05:06:59.995Z,6.87
2023-01-10T05:11:01.778Z,6.89
2023-01-10T05:15:03.970Z,6.89
2023-01-10T05:19:05.566Z,6.87
2023-01-10T05:23:07.174Z,6.82
2023-01-10T05:27:08.726Z,6.87
2023-01-10T05:31:13.171Z,6.79
2023-01-10T05:35:14.760Z,6.79
2023-01-10T05:39:16.631Z,6.82
2023-01-10T05:43:18.173Z,6.86
2023-01-10T05:47:19.717Z,6.86
2023-01-10T05:51:21.315Z,6.89
2023-01-10T05:55:22.920Z,6.93
2023-01-10T05:59:28.235Z,6.96
2023-01-10T06:03:30.097Z,6.97
2023-01-10T06:07:32.271Z,6.97
2023-01-10T06:11:36.537Z,6.96
2023-01-10T06:15:38.077Z,6.97
2023-01-10T06:19:39.791Z,6.97
2023-01-10T06:23:41.410Z,7.01
2023-01-10T06:27:43.724Z,6.99
2023-01-10T06:31:45.317Z,7.00
2023-01-10T06:35:48.146Z,7.00
2023-01-10T06:39:51.166Z,7.01
2023-01-10T06:43:52.741Z,7.04
2023-01-10T06:47:54.402Z,7.04
2023-01-10T06:51:56.040Z,7.00
2023-01-10T06:55:57.866Z,7.01
2023-01-10T06:59:59.422Z,6.99
2023-01-10T07:04:01.045Z,7.00
2023-01-10T07:08:02.803Z,6.99
2023-01-10T07:12:04.491Z,6.96
2023-01-10T07:16:08.490Z,6.94
2023-01-10T07:20:10.753Z,6.90
2023-01-10T07:24:12.461Z,6.86
2023-01-10T07:28:14.178Z,6.89
2023-01-10T07:32:15.824Z,6.86
2023-01-10T07:36:17.379Z,6.86
2023-01-10T07:40:19.001Z,6.86
2023-01-10T07:44:20.826Z,6.87
2023-01-10T07:48:22.496Z,6.90
2023-01-10T07:52:24.057Z,6.90
2023-01-10T07:56:25.613Z,6.96
2023-01-10T08:00:27.383Z,6.97
2023-01-10T08:04:28.927Z,6.96
2023-01-10T08:08:30.981Z,6.97
2023-01-10T08:12:32.712Z,6.96
2023-01-10T08:16:34.224Z,6.99
2023-01-10T08:20:35.803Z,7.01
2023-01-10T08:24:37.341Z,7.07
2023-01-10T08:28:38.895Z,7.05
2023-01-10T08:32:40.661Z,7.11
2023-01-10T08:36:42.297Z,7.12
2023-01-10T08:40:43.825Z,7.16
2023-01-10T08:44:45.417Z,7.23
2023-01-10T08:48:48.464Z,7.27
2023-01-10T08:52:51.222Z,7.29
2023-01-10T08:56:52.834Z,7.30
2023-01-10T09:00:54.442Z,7.30
2023-01-10T09:04:55.964Z,7.33
2023-01-10T09:08:57.568Z,7.34
2023-01-10T09:13:01.585Z,7.41
2023-01-10T09:17:03.259Z,7.48
2023-01-10T09:21:05.818Z,7.54
2023-01-10T09:25:08.059Z,7.58
2023-01-10T09:29:09.636Z,7.63
2023-01-10T09:33:12.096Z,7.71
2023-01-10T09:37:13.819Z,7.71
2023-01-10T09:41:21.325Z,7.69
2023-01-10T09:45:35.138Z,7.69
2023-01-10T09:50:20.100Z,7.71
2023-01-10T09:54:26.945Z,7.77
2023-01-10T09:58:31.853Z,7.81
2023-01-10T10:02:39.835Z,7.84
2023-01-10T10:06:42.360Z,7.82
2023-01-10T10:10:49.420Z,7.89
2023-01-10T10:15:08.339Z,7.95
2023-01-10T10:19:37.644Z,8.04
2023-01-10T10:23:57.903Z,8.03
2023-01-10T10:28:15.434Z,8.04
2023-01-10T10:32:54.444Z,8.04
2023-01-10T10:37:11.706Z,8.07
2023-01-10T10:41:34.354Z,8.09
2023-01-10T10:45:44.357Z,8.09
2023-01-10T10:50:02.677Z,8.07
2023-01-10T10:54:06.385Z,8.07
2023-01-10T10:58:10.982Z,8.18
2023-01-10T11:02:22.769Z,8.21
2023-01-10T11:06:26.844Z,8.24
2023-01-10T11:10:38.394Z,8.25
2023-01-10T11:14:43.575Z,8.36
2023-01-10T11:18:45.102Z,8.47
2023-01-10T11:22:50.659Z,8.64
2023-01-10T11:26:52.566Z,8.83
2023-01-10T11:30:54.717Z,9.00
2023-01-10T11:34:59.944Z,9.04
2023-01-10T11:39:04.094Z,8.96
2023-01-10T11:43:26.866Z,8.89
2023-01-10T11:47:29.956Z,8.83
2023-01-10T11:51:37.911Z,8.79
2023-01-10T11:55:39.523Z,8.76
2023-01-10T11:59:53.041Z,8.80
2023-01-10T12:03:55.319Z,8.80
2023-01-10T12:07:59.371Z,8.83
2023-01-10T12:12:17.617Z,8.82
2023-01-10T12:16:30.740Z,8.82
2023-01-10T12:20:46.034Z,8.79
2023-01-10T12:24:50.246Z,8.80
2023-01-10T12:28:58.842Z,8.79
2023-01-10T12:33:11.370Z,8.79
2023-01-10T12:37:45.614Z,8.89
2023-01-10T12:42:20.537Z,8.89
2023-01-10T12:47:05.286Z,8.97
2023-01-10T12:51:06.454Z,9.08
2023-01-10T12:55:13.601Z,9.00
2023-01-10T12:59:36.139Z,9.06
2023-01-10T13:03:39.369Z,9.03
2023-01-10T13:07:41.207Z,9.01
2023-01-10T13:12:06.269Z,8.93
2023-01-10T13:16:17.755Z,8.93
2023-01-10T13:20:26.998Z,8.93
2023-01-10T13:24:28.592Z,9.01
2023-01-10T13:28:33.722Z,9.06
2023-01-10T13:32:36.423Z,9.00
2023-01-10T13:36:41.199Z,8.96
2023-01-10T13:40:59.388Z,8.88
2023-01-10T13:45:01.098Z,8.93
2023-01-10T13:49:03.640Z,8.96
2023-01-10T13:53:06.919Z,9.24
2023-01-10T13:57:46.437Z,9.17
2023-01-10T14:02:12.359Z,9.08
2023-01-10T14:06:29.448Z,9.00
2023-01-10T14:10:32.893Z,8.96
2023-01-10T14:14:40.045Z,8.93
2023-01-10T14:18:45.906Z,8.89
2023-01-10T14:23:19.526Z,8.80
2023-01-10T14:27:22.871Z,8.80
2023-01-10T14:31:26.203Z,8.79
2023-01-10T14:35:35.934Z,8.75
2023-01-10T14:39:37.942Z,8.67
2023-01-10T14:43:55.374Z,8.64
2023-01-10T14:47:56.999Z,8.60
2023-01-10T14:52:20.106Z,8.63
2023-01-10T14:56:24.665Z,8.63
2023-01-10T15:00:31.253Z,8.58
2023-01-10T15:04:34.656Z,8.58
2023-01-10T15:08:36.284Z,8.52
2023-01-10T15:12:38.542Z,8.50
2023-01-10T15:16:40.554Z,8.45
2023-01-10T15:20:42.307Z,8.40
2023-01-10T15:24:44.036Z,8.39
2023-01-10T15:28:49.300Z,8.36
2023-01-10T15:32:54.739Z,8.29
2023-01-10T15:37:00.819Z,8.29
2023-01-10T15:41:06.202Z,8.27
2023-01-10T15:45:40.012Z,8.22
2023-01-10T15:49:52.700Z,8.20
2023-01-10T15:53:57.505Z,8.17
2023-01-10T15:58:01.252Z,8.13
2023-01-10T16:02:12.089Z,8.12
2023-01-10T16:06:30.478Z,8.09
2023-01-10T16:10:37.004Z,8.07
2023-01-10T16:14:38.625Z,8.07
2023-01-10T16:18:40.158Z,8.06
2023-01-10T16:22:43.750Z,8.03
2023-01-10T16:26:46.200Z,8.02
2023-01-10T16:30:48.542Z,8.00
2023-01-10T16:34:50.261Z,8.00
2023-01-10T16:38:51.788Z,7.96
2023-01-10T16:43:12.840Z,7.95
2023-01-10T16:47:14.486Z,7.96
2023-01-10T16:51:20.150Z,7.94
2023-01-10T16:55:25.146Z,7.94
2023-01-10T16:59:26.693Z,7.94
2023-01-10T17:03:32.300Z,7.92
2023-01-10T17:07:35.146Z,7.94
2023-01-10T17:11:42.174Z,7.94
2023-01-10T17:15:43.704Z,7.96
2023-01-10T17:19:47.125Z,7.95
2023-01-10T17:23:49.335Z,7.95
2023-01-10T17:27:50.956Z,7.99
2023-01-10T17:31:52.679Z,7.99
2023-01-10T17:35:56.344Z,7.99
2023-01-10T17:39:57.848Z,8.02
2023-01-10T17:43:59.494Z,8.02
2023-01-10T17:48:01.056Z,8.02
2023-01-10T17:52:03.369Z,8.02
2023-01-10T17:56:08.468Z,8.03
2023-01-10T18:00:10.571Z,8.03
2023-01-10T18:04:12.210Z,8.03
2023-01-10T18:08:13.779Z,8.02
2023-01-10T18:12:15.825Z,8.04
2023-01-10T18:16:17.425Z,8.03
2023-01-10T18:20:19.293Z,8.06
2023-01-10T18:24:20.939Z,8.04
2023-01-10T18:28:40.178Z,8.03
2023-01-10T18:32:43.103Z,8.00
2023-01-10T18:36:44.712Z,8.02
2023-01-10T18:40:47.284Z,8.14
2023-01-10T18:44:48.927Z,8.27
2023-01-10T18:48:52.497Z,8.20
2023-01-10T18:52:54.087Z,8.14
2023-01-10T18:56:58.284Z,8.18
2023-01-10T19:01:15.513Z,8.13
2023-01-10T19:05:17.368Z,8.10
2023-01-10T19:09:19.435Z,8.09
2023-01-10T19:13:21.754Z,8.06
2023-01-10T19:17:24.927Z,8.07
2023-01-10T19:21:27.726Z,8.06
2023-01-10T19:25:29.396Z,8.06
2023-01-10T19:29:31.149Z,8.04
2023-01-10T19:33:37.663Z,8.04
2023-01-10T19:37:39.366Z,8.04
2023-01-10T19:41:41.885Z,8.03
2023-01-10T19:45:43.417Z,8.06
2023-01-10T19:49:45.101Z,8.06
2023-01-10T19:53:46.814Z,8.07
2023-01-10T19:57:48.434Z,8.07
2023-01-10T20:01:50.057Z,8.09
2023-01-10T20:05:51.875Z,8.07
2023-01-10T20:09:57.038Z,8.12
2023-01-10T20:13:58.621Z,8.10
2023-01-10T20:18:00.228Z,8.10
2023-01-10T20:22:01.883Z,8.12
2023-01-10T20:26:06.867Z,8.10
2023-01-10T20:30:09.289Z,8.12
2023-01-10T20:34:10.867Z,8.12
2023-01-10T20:38:12.538Z,8.10
2023-01-10T20:42:14.158Z,8.14
2023-01-10T20:46:19.935Z,8.13
2023-01-10T20:50:21.626Z,8.13
2023-01-10T20:54:23.321Z,8.13
2023-01-10T20:58:24.934Z,8.14
2023-01-10T21:02:26.587Z,8.13
2023-01-10T21:06:28.514Z,8.13
2023-01-10T21:10:30.324Z,8.13
2023-01-10T21:14:31.868Z,8.14
2023-01-10T21:18:40.815Z,8.12
2023-01-10T21:22:42.662Z,8.12
2023-01-10T21:26:44.343Z,8.10
2023-01-10T21:30:46.331Z,8.10
2023-01-10T21:34:47.856Z,8.07
2023-01-10T21:38:49.572Z,8.03
2023-01-10T21:42:52.444Z,8.00
2023-01-10T21:46:54.115Z,8.00
2023-01-10T21:50:57.670Z,7.96
2023-01-10T21:54:59.384Z,7.96
2023-01-10T21:59:00.947Z,7.95
2023-01-10T22:03:02.775Z,7.99
2023-01-10T22:07:04.379Z,7.99
2023-01-10T22:11:05.997Z,7.95
2023-01-10T22:15:08.056Z,7.99
2023-01-10T22:19:09.798Z,7.99
2023-01-10T22:23:11.407Z,8.03
2023-01-10T22:27:16.358Z,8.06
2023-01-10T22:31:18.038Z,8.06
2023-01-10T22:35:19.650Z,8.09
2023-01-10T22:39:21.178Z,8.12
2023-01-10T22:43:22.732Z,8.13
2023-01-10T22:47:24.537Z,8.14
2023-01-10T22:51:28.386Z,8.17
2023-01-10T22:55:29.962Z,8.17
2023-01-10T22:59:33.244Z,8.17
2023-01-10T23:03:34.984Z,8.21
2023-01-10T23:07:36.624Z,8.21
2023-01-10T23:11:38.175Z,8.22
2023-01-10T23:15:39.787Z,8.24
2023-01-10T23:19:41.365Z,8.25
2023-01-10T23:23:43.076Z,8.27
2023-01-10T23:27:44.623Z,8.27
2023-01-10T23:31:49.675Z,8.27
2023-01-10T23:35:51.324Z,8.29
2023-01-10T23:39:52.856Z,8.28
2023-01-10T23:43:54.457Z,8.32
2023-01-10T23:47:56.007Z,8.32
2023-01-10T23:51:57.577Z,8.36
2023-01-10T23:55:59.136Z,8.39
